Date,TemperatureHighF,TemperatureAvgF,TemperatureLowF,DewpointHighF,DewpointAvgF,DewpointLowF,HumidityHigh,HumidityAvg,HumidityLow,PressureMaxIn,PressureMinIn,WindSpeedMaxMPH,WindSpeedAvgMPH,GustSpeedMaxMPH,PrecipitationSumIn
2013-4-1,36,30,19,-100,-100,-100,0,0,100,0.00,40.00,0,-999,0,0.00
2013-4-2,49,35,25,-100,-100,-100,0,0,100,0.00,40.00,0,-999,0,0.00
2013-4-3,55,43,29,-100,-100,-100,0,0,100,0.00,40.00,0,-999,0,0.00
2013-4-4,57,46,32,-100,-100,-100,0,0,100,0.00,40.00,0,-999,0,0.00
2013-4-5,65,47,30,-100,-100,-100,0,0,100,0.00,40.00,0,-999,0,0.00
2013-4-6,60,57,47,-100,-100,-100,0,0,100,0.00,40.00,0,-999,0,0.00
2013-4-7,69,52,39,-100,-100,-100,0,0,100,0.00,40.00,0,-999,0,0.00
2013-4-8,63,54,47,-100,-100,-100,0,0,100,0.00,40.00,0,-999,0,0.00
2013-4-9,58,45,31,-100,-100,-100,0,0,100,0.00,40.00,0,-999,0,0.00
2013-4-10,33,32,30,-100,-100,-100,0,0,100,0.00,40.00,0,-999,0,0.00
2013-4-11,32,30,27,-100,-100,-100,0,0,100,0.00,40.00,0,-999,0,0.00
2013-4-12,36,32,29,-100,-100,-100,0,0,100,0.00,40.00,0,-999,0,0.00
2013-4-13,47,40,30,-100,-100,-100,0,0,100,0.00,40.00,0,-999,0,0.00
2013-4-14,56,47,40,-100,-100,-100,0,0,100,0.00,40.00,0,-999,0,0.00
2013-4-15,43,38,32,-100,-100,-100,0,0,100,0.00,40.00,0,-999,0,0.00
2013-4-16,47,38,32,-100,-100,-100,0,0,100,0.00,40.00,0,-999,0,0.00
2013-4-17,43,38,34,-100,-100,-100,0,0,100,0.00,40.00,0,-999,0,0.00
2013-4-18,34,31,29,-100,-100,-100,0,0,100,0.00,40.00,0,-999,0,0.00
2013-4-19,42,32,29,-100,-100,-100,0,0,100,0.00,40.00,0,-999,0,0.00
2013-4-20,41,32,25,-100,-100,-100,0,0,100,0.00,40.00,0,-999,0,0.00
2013-4-21,52,47,41,-100,-100,-100,0,0,100,0.00,40.00,0,-999,0,0.00
2013-4-22,50,40,32,-100,-100,-100,0,0,100,0.00,40.00,0,-999,0,0.00
2013-4-23,32,29,27,-100,-100,-100,0,0,100,0.00,40.00,0,-999,0,0.00
2013-4-24,47,38,26,-100,-100,-100,0,0,100,0.00,40.00,0,-999,0,0.00
2013-4-25,68,52,35,-100,-100,-100,0,0,100,0.00,40.00,0,-999,0,0.00
2013-4-26,71,61,49,-100,-100,-100,0,0,100,0.00,40.00,0,-999,0,0.00
2013-4-27,71,50,41,-100,-100,-100,0,0,100,0.00,40.00,0,-999,0,0.00
2013-4-28,80,63,46,-100,-100,-100,0,0,100,0.00,40.00,0,-999,0,0.00
2013-4-29,80,61,55,-100,-100,-100,0,0,100,0.00,40.00,0,-999,0,0.00
2013-4-30,70,66,60,-100,-100,-100,0,0,100,0.00,40.00,0,-999,0,0.00